sensor_id;sensor_type;location;lat;lon;timestamp;pressure;altitude;pressure_sealevel;temperature;humidity
10006;BME280;5042;42.626;23.382;2023-06-14T00:00:21;94124.75;;;18.25;100.00
10006;BME280;5042;42.626;23.382;2023-06-14T00:02:47;94127.78;;;18.34;100.00
10006;BME280;5042;42.626;23.382;2023-06-14T00:05:16;94125.22;;;18.39;100.00
10006;BME280;5042;42.626;23.382;2023-06-14T00:07:42;94123.19;;;18.46;100.00
10006;BME280;5042;42.626;23.382;2023-06-14T00:10:10;94123.19;;;18.46;100.00
10006;BME280;5042;42.626;23.382;2023-06-14T00:12:38;94091.13;;;18.31;100.00
10006;BME280;5042;42.626;23.382;2023-06-14T00:15:06;94112.03;;;18.44;100.00
10006;BME280;5042;42.626;23.382;2023-06-14T00:17:35;94111.28;;;18.32;100.00
10006;BME280;5042;42.626;23.382;2023-06-14T00:20:02;94119.13;;;18.21;100.00
10006;BME280;5042;42.626;23.382;2023-06-14T00:22:31;94114.53;;;18.00;100.00
10006;BME280;5042;42.626;23.382;2023-06-14T00:24:58;94113.38;;;17.79;100.00
10006;BME280;5042;42.626;23.382;2023-06-14T00:27:25;94112.16;;;17.70;100.00
10006;BME280;5042;42.626;23.382;2023-06-14T00:29:52;94108.06;;;17.79;100.00
10006;BME280;5042;42.626;23.382;2023-06-14T00:32:18;94106.81;;;17.82;100.00
10006;BME280;5042;42.626;23.382;2023-06-14T00:34:49;94105.19;;;17.64;100.00
10006;BME280;5042;42.626;23.382;2023-06-14T00:37:16;94100.84;;;17.57;100.00
10006;BME280;5042;42.626;23.382;2023-06-14T00:39:45;94103.25;;;17.59;100.00
10006;BME280;5042;42.626;23.382;2023-06-14T00:42:23;94100.03;;;17.57;100.00
10006;BME280;5042;42.626;23.382;2023-06-14T00:44:49;94094.16;;;17.55;100.00
10006;BME280;5042;42.626;23.382;2023-06-14T00:47:16;94102.13;;;17.55;100.00
10006;BME280;5042;42.626;23.382;2023-06-14T00:49:44;94100.69;;;17.64;100.00
10006;BME280;5042;42.626;23.382;2023-06-14T00:52:11;94090.38;;;17.51;100.00
10006;BME280;5042;42.626;23.382;2023-06-14T00:54:40;94092.50;;;17.49;100.00
10006;BME280;5042;42.626;23.382;2023-06-14T00:57:08;94093.19;;;17.44;100.00
10006;BME280;5042;42.626;23.382;2023-06-14T00:59:40;94089.84;;;17.49;100.00
10006;BME280;5042;42.626;23.382;2023-06-14T01:02:08;94091.50;;;17.55;100.00
10006;BME280;5042;42.626;23.382;2023-06-14T01:04:35;94096.91;;;17.60;100.00
10006;BME280;5042;42.626;23.382;2023-06-14T01:07:06;94095.78;;;17.56;100.00
10006;BME280;5042;42.626;23.382;2023-06-14T01:09:46;94088.13;;;17.43;100.00
10006;BME280;5042;42.626;23.382;2023-06-14T01:12:22;94097.13;;;17.42;100.00
10006;BME280;5042;42.626;23.382;2023-06-14T01:14:52;94091.50;;;17.38;100.00
10006;BME280;5042;42.626;23.382;2023-06-14T01:17:21;94094.75;;;17.28;100.00
10006;BME280;5042;42.626;23.382;2023-06-14T01:19:51;94095.13;;;17.20;100.00
10006;BME280;5042;42.626;23.382;2023-06-14T01:22:24;94093.25;;;17.32;100.00
10006;BME280;5042;42.626;23.382;2023-06-14T01:24:52;94098.72;;;17.43;100.00
10006;BME280;5042;42.626;23.382;2023-06-14T01:27:22;94099.38;;;17.50;100.00
10006;BME280;5042;42.626;23.382;2023-06-14T01:29:50;94094.09;;;17.50;100.00
10006;BME280;5042;42.626;23.382;2023-06-14T01:32:22;94086.84;;;17.45;100.00
10006;BME280;5042;42.626;23.382;2023-06-14T01:34:49;94083.47;;;17.50;100.00
10006;BME280;5042;42.626;23.382;2023-06-14T01:37:16;94093.66;;;17.41;100.00
10006;BME280;5042;42.626;23.382;2023-06-14T01:39:44;94088.78;;;17.50;100.00
10006;BME280;5042;42.626;23.382;2023-06-14T01:42:13;94088.34;;;17.41;100.00
10006;BME280;5042;42.626;23.382;2023-06-14T01:44:42;94081.44;;;17.23;100.00
10006;BME280;5042;42.626;23.382;2023-06-14T01:47:09;94089.41;;;17.40;100.00
10006;BME280;5042;42.626;23.382;2023-06-14T01:49:38;94082.03;;;17.42;100.00
10006;BME280;5042;42.626;23.382;2023-06-14T01:52:05;94085.47;;;17.43;100.00
10006;BME280;5042;42.626;23.382;2023-06-14T01:54:35;94088.78;;;17.50;100.00
10006;BME280;5042;42.626;23.382;2023-06-14T01:57:07;94072.22;;;17.43;100.00
10006;BME280;5042;42.626;23.382;2023-06-14T01:59:37;94091.59;;;17.60;100.00
10006;BME280;5042;42.626;23.382;2023-06-14T02:02:04;94092.81;;;17.52;100.00
10006;BME280;5042;42.626;23.382;2023-06-14T02:04:31;94090.00;;;17.59;100.00
10006;BME280;5042;42.626;23.382;2023-06-14T02:06:57;94097.47;;;17.62;100.00
10006;BME280;5042;42.626;23.382;2023-06-14T02:09:24;94091.28;;;17.56;100.00
10006;BME280;5042;42.626;23.382;2023-06-14T02:11:51;94104.22;;;17.70;100.00
10006;BME280;5042;42.626;23.382;2023-06-14T02:14:18;94108.56;;;17.76;100.00
10006;BME280;5042;42.626;23.382;2023-06-14T02:16:47;94104.56;;;17.73;100.00
10006;BME280;5042;42.626;23.382;2023-06-14T02:19:15;94111.00;;;17.77;100.00
10006;BME280;5042;42.626;23.382;2023-06-14T02:21:42;94107.56;;;17.65;100.00
10006;BME280;5042;42.626;23.382;2023-06-14T02:24:09;94065.41;;;17.47;100.00
10006;BME280;5042;42.626;23.382;2023-06-14T02:26:36;94111.97;;;17.88;100.00
10006;BME280;5042;42.626;23.382;2023-06-14T02:29:03;94111.03;;;17.94;100.00
10006;BME280;5042;42.626;23.382;2023-06-14T02:31:31;94109.72;;;17.97;100.00
10006;BME280;5042;42.626;23.382;2023-06-14T02:33:59;94114.25;;;17.96;100.00
10006;BME280;5042;42.626;23.382;2023-06-14T02:36:26;94110.69;;;17.91;100.00
10006;BME280;5042;42.626;23.382;2023-06-14T02:38:54;94106.19;;;17.91;100.00
10006;BME280;5042;42.626;23.382;2023-06-14T02:41:22;94108.09;;;17.96;100.00
10006;BME280;5042;42.626;23.382;2023-06-14T02:43:49;94110.03;;;18.00;100.00
10006;BME280;5042;42.626;23.382;2023-06-14T02:46:16;94115.84;;;17.97;100.00
10006;BME280;5042;42.626;23.382;2023-06-14T02:48:43;94115.84;;;17.97;100.00
10006;BME280;5042;42.626;23.382;2023-06-14T02:51:11;94113.41;;;17.96;100.00
10006;BME280;5042;42.626;23.382;2023-06-14T02:53:38;94111.31;;;17.98;100.00
10006;BME280;5042;42.626;23.382;2023-06-14T02:56:06;94113.69;;;17.94;100.00
10006;BME280;5042;42.626;23.382;2023-06-14T02:58:32;94126.59;;;17.91;100.00
10006;BME280;5042;42.626;23.382;2023-06-14T03:00:59;94114.41;;;17.90;100.00
10006;BME280;5042;42.626;23.382;2023-06-14T03:03:28;94126.59;;;17.91;100.00
10006;BME280;5042;42.626;23.382;2023-06-14T03:05:55;94122.81;;;17.87;100.00
10006;BME280;5042;42.626;23.382;2023-06-14T03:08:23;94125.78;;;17.90;100.00
10006;BME280;5042;42.626;23.382;2023-06-14T03:10:52;94125.84;;;17.78;100.00
10006;BME280;5042;42.626;23.382;2023-06-14T03:13:19;94123.06;;;17.85;100.00
10006;BME280;5042;42.626;23.382;2023-06-14T03:15:47;94110.16;;;17.77;100.00
10006;BME280;5042;42.626;23.382;2023-06-14T03:18:16;94099.94;;;17.80;100.00
10006;BME280;5042;42.626;23.382;2023-06-14T03:20:43;94125.72;;;17.85;100.00
10006;BME280;5042;42.626;23.382;2023-06-14T03:23:11;94127.00;;;17.83;100.00
10006;BME280;5042;42.626;23.382;2023-06-14T03:25:39;94133.34;;;17.98;100.00
10006;BME280;5042;42.626;23.382;2023-06-14T03:28:07;94138.97;;;18.02;100.00
10006;BME280;5042;42.626;23.382;2023-06-14T03:30:34;94134.31;;;18.09;100.00
10006;BME280;5042;42.626;23.382;2023-06-14T03:33:01;94129.00;;;18.09;100.00
10006;BME280;5042;42.626;23.382;2023-06-14T03:35:28;94133.19;;;18.05;100.00
10006;BME280;5042;42.626;23.382;2023-06-14T03:37:55;94134.97;;;17.99;100.00
10006;BME280;5042;42.626;23.382;2023-06-14T03:40:22;94130.75;;;17.87;100.00
10006;BME280;5042;42.626;23.382;2023-06-14T03:42:53;94140.13;;;17.89;100.00
10006;BME280;5042;42.626;23.382;2023-06-14T03:45:20;94144.59;;;17.89;100.00
10006;BME280;5042;42.626;23.382;2023-06-14T03:47:47;94140.50;;;17.98;100.00
10006;BME280;5042;42.626;23.382;2023-06-14T03:50:13;94139.41;;;17.94;100.00
10006;BME280;5042;42.626;23.382;2023-06-14T03:52:40;94142.34;;;17.80;100.00
10006;BME280;5042;42.626;23.382;2023-06-14T03:55:09;93970.88;;;16.73;100.00
10006;BME280;5042;42.626;23.382;2023-06-14T03:57:36;94148.78;;;17.85;100.00
10006;BME280;5042;42.626;23.382;2023-06-14T04:00:05;94146.22;;;17.90;100.00
10006;BME280;5042;42.626;23.382;2023-06-14T04:02:33;94145.06;;;17.86;100.00
10006;BME280;5042;42.626;23.382;2023-06-14T04:05:00;94159.00;;;17.93;100.00
10006;BME280;5042;42.626;23.382;2023-06-14T04:07:27;94155.31;;;17.94;100.00
10006;BME280;5042;42.626;23.382;2023-06-14T04:09:55;94151.81;;;17.93;100.00
10006;BME280;5042;42.626;23.382;2023-06-14T04:12:22;94157.97;;;17.94;100.00
10006;BME280;5042;42.626;23.382;2023-06-14T04:14:48;94154.75;;;17.92;100.00
10006;BME280;5042;42.626;23.382;2023-06-14T04:17:17;94151.53;;;17.90;100.00
10006;BME280;5042;42.626;23.382;2023-06-14T04:19:44;94157.13;;;17.93;100.00
10006;BME280;5042;42.626;23.382;2023-06-14T04:22:11;94151.53;;;17.90;100.00
10006;BME280;5042;42.626;23.382;2023-06-14T04:24:38;94156.81;;;17.90;100.00
10006;BME280;5042;42.626;23.382;2023-06-14T04:27:05;94151.38;;;17.96;100.00
10006;BME280;5042;42.626;23.382;2023-06-14T04:29:32;94158.69;;;18.06;100.00
10006;BME280;5042;42.626;23.382;2023-06-14T04:31:59;94155.69;;;18.19;100.00
10006;BME280;5042;42.626;23.382;2023-06-14T04:34:28;94099.69;;;17.82;100.00
10006;BME280;5042;42.626;23.382;2023-06-14T04:36:59;94146.44;;;18.22;100.00
10006;BME280;5042;42.626;23.382;2023-06-14T04:39:26;94155.50;;;18.43;100.00
10006;BME280;5042;42.626;23.382;2023-06-14T04:41:53;94153.56;;;18.55;100.00
10006;BME280;5042;42.626;23.382;2023-06-14T04:44:23;94149.38;;;18.59;100.00
10006;BME280;5042;42.626;23.382;2023-06-14T04:46:55;94150.50;;;18.80;100.00
10006;BME280;5042;42.626;23.382;2023-06-14T04:49:24;94153.66;;;18.99;100.00
10006;BME280;5042;42.626;23.382;2023-06-14T04:51:54;94149.75;;;19.29;100.00
10006;BME280;5042;42.626;23.382;2023-06-14T04:54:24;94167.47;;;19.45;100.00
10006;BME280;5042;42.626;23.382;2023-06-14T04:56:51;94161.63;;;19.43;100.00
10006;BME280;5042;42.626;23.382;2023-06-14T04:59:18;94160.06;;;19.47;100.00
10006;BME280;5042;42.626;23.382;2023-06-14T05:01:45;94161.13;;;19.46;100.00
10006;BME280;5042;42.626;23.382;2023-06-14T05:04:13;94169.69;;;19.54;100.00
10006;BME280;5042;42.626;23.382;2023-06-14T05:06:40;94172.13;;;19.33;100.00
10006;BME280;5042;42.626;23.382;2023-06-14T05:09:08;94169.47;;;19.33;100.00
10006;BME280;5042;42.626;23.382;2023-06-14T05:11:35;94171.66;;;19.36;100.00
10006;BME280;5042;42.626;23.382;2023-06-14T05:14:01;94175.09;;;19.37;100.00
10006;BME280;5042;42.626;23.382;2023-06-14T05:16:28;94169.97;;;19.30;100.00
10006;BME280;5042;42.626;23.382;2023-06-14T05:18:55;94173.03;;;19.22;100.00
10006;BME280;5042;42.626;23.382;2023-06-14T05:21:23;94175.72;;;19.00;100.00
10006;BME280;5042;42.626;23.382;2023-06-14T05:23:50;94180.09;;;18.89;100.00
10006;BME280;5042;42.626;23.382;2023-06-14T05:26:18;94176.09;;;18.87;100.00
10006;BME280;5042;42.626;23.382;2023-06-14T05:28:45;94182.19;;;18.70;100.00
10006;BME280;5042;42.626;23.382;2023-06-14T05:31:12;94185.91;;;18.52;100.00
10006;BME280;5042;42.626;23.382;2023-06-14T05:33:39;94189.19;;;18.59;100.00
10006;BME280;5042;42.626;23.382;2023-06-14T05:36:06;94191.69;;;18.66;100.00
10006;BME280;5042;42.626;23.382;2023-06-14T05:38:32;94203.50;;;18.75;100.00
10006;BME280;5042;42.626;23.382;2023-06-14T05:40:59;94189.91;;;18.89;100.00
10006;BME280;5042;42.626;23.382;2023-06-14T05:43:27;94191.81;;;18.93;100.00
10006;BME280;5042;42.626;23.382;2023-06-14T05:45:54;94191.19;;;18.86;100.00
10006;BME280;5042;42.626;23.382;2023-06-14T05:48:21;94190.09;;;18.65;100.00
10006;BME280;5042;42.626;23.382;2023-06-14T05:50:47;94194.50;;;18.59;100.00
10006;BME280;5042;42.626;23.382;2023-06-14T05:53:14;94189.78;;;18.44;100.00
10006;BME280;5042;42.626;23.382;2023-06-14T05:55:41;94199.59;;;18.44;100.00
10006;BME280;5042;42.626;23.382;2023-06-14T05:58:08;94197.66;;;18.56;100.00
10006;BME280;5042;42.626;23.382;2023-06-14T06:00:37;94210.91;;;18.73;100.00
10006;BME280;5042;42.626;23.382;2023-06-14T06:03:04;94208.50;;;18.89;100.00
10006;BME280;5042;42.626;23.382;2023-06-14T06:05:33;94201.03;;;19.07;100.00
10006;BME280;5042;42.626;23.382;2023-06-14T06:08:00;94198.75;;;19.16;100.00
10006;BME280;5042;42.626;23.382;2023-06-14T06:10:27;94200.78;;;19.31;100.00
10006;BME280;5042;42.626;23.382;2023-06-14T06:12:53;94208.41;;;19.44;100.00
10006;BME280;5042;42.626;23.382;2023-06-14T06:15:20;94206.91;;;19.54;100.00
10006;BME280;5042;42.626;23.382;2023-06-14T06:17:48;94214.91;;;19.54;100.00
10006;BME280;5042;42.626;23.382;2023-06-14T06:20:16;94211.66;;;19.74;100.00
10006;BME280;5042;42.626;23.382;2023-06-14T06:22:43;94216.28;;;19.83;100.00
10006;BME280;5042;42.626;23.382;2023-06-14T06:25:10;94210.78;;;19.90;100.00
10006;BME280;5042;42.626;23.382;2023-06-14T06:27:36;94212.47;;;19.74;100.00
10006;BME280;5042;42.626;23.382;2023-06-14T06:30:04;94210.44;;;19.59;100.00
10006;BME280;5042;42.626;23.382;2023-06-14T06:32:31;94213.78;;;19.49;100.00
10006;BME280;5042;42.626;23.382;2023-06-14T06:34:59;94221.69;;;19.44;100.00
10006;BME280;5042;42.626;23.382;2023-06-14T06:37:26;94224.41;;;19.27;100.00
10006;BME280;5042;42.626;23.382;2023-06-14T06:39:53;94224.97;;;19.52;100.00
10006;BME280;5042;42.626;23.382;2023-06-14T06:42:19;94226.56;;;19.53;100.00
10006;BME280;5042;42.626;23.382;2023-06-14T06:44:46;94230.66;;;19.38;100.00
10006;BME280;5042;42.626;23.382;2023-06-14T06:47:13;94227.94;;;19.55;100.00
10006;BME280;5042;42.626;23.382;2023-06-14T06:49:40;94228.47;;;19.57;100.00
10006;BME280;5042;42.626;23.382;2023-06-14T06:52:08;94222.88;;;19.54;100.00
10006;BME280;5042;42.626;23.382;2023-06-14T06:54:35;94223.72;;;19.59;100.00
10006;BME280;5042;42.626;23.382;2023-06-14T06:57:02;94225.59;;;19.59;100.00
10006;BME280;5042;42.626;23.382;2023-06-14T06:59:29;94230.06;;;19.75;100.00
10006;BME280;5042;42.626;23.382;2023-06-14T07:01:56;94236.63;;;19.95;100.00
10006;BME280;5042;42.626;23.382;2023-06-14T07:04:22;94233.19;;;19.94;100.00
10006;BME280;5042;42.626;23.382;2023-06-14T07:06:49;94231.88;;;19.97;100.00
10006;BME280;5042;42.626;23.382;2023-06-14T07:09:18;94230.13;;;20.07;100.00
10006;BME280;5042;42.626;23.382;2023-06-14T07:11:46;94230.66;;;20.09;100.00
10006;BME280;5042;42.626;23.382;2023-06-14T07:14:13;94229.34;;;20.12;100.00
10006;BME280;5042;42.626;23.382;2023-06-14T07:16:40;94222.34;;;20.33;100.00
10006;BME280;5042;42.626;23.382;2023-06-14T07:19:08;94205.69;;;20.16;100.00
10006;BME280;5042;42.626;23.382;2023-06-14T07:21:36;94212.56;;;20.39;100.00
10006;BME280;5042;42.626;23.382;2023-06-14T07:24:04;94217.38;;;20.74;100.00
10006;BME280;5042;42.626;23.382;2023-06-14T07:26:33;94159.19;;;21.03;100.00
10006;BME280;5042;42.626;23.382;2023-06-14T07:29:00;94206.13;;;21.72;100.00
10006;BME280;5042;42.626;23.382;2023-06-14T07:31:27;94218.69;;;21.82;100.00
10006;BME280;5042;42.626;23.382;2023-06-14T07:33:54;94212.81;;;21.85;100.00
10006;BME280;5042;42.626;23.382;2023-06-14T07:36:21;94212.22;;;21.57;100.00
10006;BME280;5042;42.626;23.382;2023-06-14T07:38:48;94211.75;;;21.81;100.00
10006;BME280;5042;42.626;23.382;2023-06-14T07:41:16;94216.06;;;21.97;100.00
10006;BME280;5042;42.626;23.382;2023-06-14T07:43:44;94218.75;;;22.08;100.00
10006;BME280;5042;42.626;23.382;2023-06-14T07:46:11;94221.66;;;22.06;100.00
10006;BME280;5042;42.626;23.382;2023-06-14T07:48:37;94218.28;;;22.21;100.00
10006;BME280;5042;42.626;23.382;2023-06-14T07:51:04;94221.97;;;22.05;100.00
10006;BME280;5042;42.626;23.382;2023-06-14T07:53:31;94224.47;;;21.58;100.00
10006;BME280;5042;42.626;23.382;2023-06-14T07:55:58;94229.50;;;21.45;100.00
10006;BME280;5042;42.626;23.382;2023-06-14T07:58:25;94226.38;;;21.10;100.00
10006;BME280;5042;42.626;23.382;2023-06-14T08:00:53;94226.59;;;21.04;100.00
10006;BME280;5042;42.626;23.382;2023-06-14T08:03:20;94229.63;;;21.17;100.00
10006;BME280;5042;42.626;23.382;2023-06-14T08:05:48;94233.94;;;21.24;100.00
10006;BME280;5042;42.626;23.382;2023-06-14T08:08:15;94240.06;;;21.24;100.00
10006;BME280;5042;42.626;23.382;2023-06-14T08:10:42;94244.06;;;21.27;100.00
10006;BME280;5042;42.626;23.382;2023-06-14T08:13:08;94247.97;;;21.14;100.00
10006;BME280;5042;42.626;23.382;2023-06-14T08:15:35;94251.50;;;21.25;100.00
10006;BME280;5042;42.626;23.382;2023-06-14T08:18:03;94253.72;;;21.38;100.00
10006;BME280;5042;42.626;23.382;2023-06-14T08:20:30;94247.00;;;21.83;100.00
10006;BME280;5042;42.626;23.382;2023-06-14T08:22:57;94248.72;;;22.46;100.00
10006;BME280;5042;42.626;23.382;2023-06-14T08:25:24;94248.19;;;22.69;100.00
10006;BME280;5042;42.626;23.382;2023-06-14T08:27:51;94259.41;;;22.76;100.00
10006;BME280;5042;42.626;23.382;2023-06-14T08:30:18;94260.22;;;23.07;100.00
10006;BME280;5042;42.626;23.382;2023-06-14T08:32:44;94251.13;;;23.14;100.00
10006;BME280;5042;42.626;23.382;2023-06-14T08:35:13;94256.38;;;23.39;100.00
10006;BME280;5042;42.626;23.382;2023-06-14T08:37:40;94258.06;;;22.94;100.00
10006;BME280;5042;42.626;23.382;2023-06-14T08:40:17;94257.28;;;22.78;100.00
10006;BME280;5042;42.626;23.382;2023-06-14T08:42:47;94252.97;;;22.52;100.00
10006;BME280;5042;42.626;23.382;2023-06-14T08:45:14;94258.31;;;22.21;100.00
10006;BME280;5042;42.626;23.382;2023-06-14T08:47:40;94255.78;;;21.78;100.00
10006;BME280;5042;42.626;23.382;2023-06-14T08:50:08;94169.19;;;21.33;100.00
10006;BME280;5042;42.626;23.382;2023-06-14T08:52:38;94249.09;;;21.76;100.00
10006;BME280;5042;42.626;23.382;2023-06-14T08:55:06;94244.81;;;21.75;100.00
10006;BME280;5042;42.626;23.382;2023-06-14T08:57:35;94239.47;;;21.65;100.00
10006;BME280;5042;42.626;23.382;2023-06-14T09:00:03;94228.81;;;21.75;100.00
10006;BME280;5042;42.626;23.382;2023-06-14T09:02:37;94250.00;;;22.12;100.00
10006;BME280;5042;42.626;23.382;2023-06-14T09:05:04;94247.31;;;22.17;100.00
10006;BME280;5042;42.626;23.382;2023-06-14T09:07:31;94251.34;;;22.20;100.00
10006;BME280;5042;42.626;23.382;2023-06-14T09:10:10;94235.88;;;22.22;100.00
10006;BME280;5042;42.626;23.382;2023-06-14T09:12:37;94241.22;;;22.89;100.00
10006;BME280;5042;42.626;23.382;2023-06-14T09:15:06;94243.00;;;23.44;100.00
10006;BME280;5042;42.626;23.382;2023-06-14T09:17:34;94247.81;;;23.47;100.00
10006;BME280;5042;42.626;23.382;2023-06-14T09:20:01;94243.03;;;23.34;100.00
10006;BME280;5042;42.626;23.382;2023-06-14T09:22:31;94248.59;;;23.48;100.00
10006;BME280;5042;42.626;23.382;2023-06-14T09:24:59;94239.41;;;23.80;100.00
10006;BME280;5042;42.626;23.382;2023-06-14T09:27:28;94231.22;;;23.50;100.00
10006;BME280;5042;42.626;23.382;2023-06-14T09:29:55;94245.69;;;23.34;100.00
10006;BME280;5042;42.626;23.382;2023-06-14T09:32:22;94235.84;;;23.19;100.00
10006;BME280;5042;42.626;23.382;2023-06-14T09:34:49;94240.34;;;23.39;100.00
10006;BME280;5042;42.626;23.382;2023-06-14T09:37:26;94239.16;;;23.71;100.00
10006;BME280;5042;42.626;23.382;2023-06-14T09:39:53;94238.38;;;23.76;100.00
10006;BME280;5042;42.626;23.382;2023-06-14T09:42:20;94238.38;;;23.76;100.00
10006;BME280;5042;42.626;23.382;2023-06-14T09:44:50;94234.25;;;23.94;100.00
10006;BME280;5042;42.626;23.382;2023-06-14T09:47:17;94233.06;;;24.15;100.00
10006;BME280;5042;42.626;23.382;2023-06-14T09:49:44;94230.69;;;24.08;100.00
10006;BME280;5042;42.626;23.382;2023-06-14T09:52:15;94219.31;;;23.87;100.00
10006;BME280;5042;42.626;23.382;2023-06-14T09:54:43;94222.09;;;24.11;100.00
10006;BME280;5042;42.626;23.382;2023-06-14T09:57:12;94214.09;;;24.06;100.00
10006;BME280;5042;42.626;23.382;2023-06-14T09:59:41;94231.34;;;24.29;100.00
10006;BME280;5042;42.626;23.382;2023-06-14T10:02:12;94224.63;;;24.32;100.00
10006;BME280;5042;42.626;23.382;2023-06-14T10:04:46;94213.56;;;24.44;100.00
10006;BME280;5042;42.626;23.382;2023-06-14T10:07:14;94216.00;;;24.80;100.00
10006;BME280;5042;42.626;23.382;2023-06-14T10:09:44;94217.00;;;25.42;100.00
10006;BME280;5042;42.626;23.382;2023-06-14T10:12:16;94214.19;;;25.95;100.00
10006;BME280;5042;42.626;23.382;2023-06-14T10:14:47;94212.88;;;26.12;100.00
10006;BME280;5042;42.626;23.382;2023-06-14T10:17:22;94207.31;;;25.65;100.00
10006;BME280;5042;42.626;23.382;2023-06-14T10:19:56;94205.25;;;25.57;100.00
10006;BME280;5042;42.626;23.382;2023-06-14T10:22:30;94200.13;;;25.60;100.00
10006;BME280;5042;42.626;23.382;2023-06-14T10:24:59;94198.88;;;25.29;100.00
10006;BME280;5042;42.626;23.382;2023-06-14T10:27:26;94195.19;;;25.49;100.00
10006;BME280;5042;42.626;23.382;2023-06-14T10:30:04;94173.22;;;25.85;100.00
10006;BME280;5042;42.626;23.382;2023-06-14T10:32:33;94208.97;;;26.42;100.00
10006;BME280;5042;42.626;23.382;2023-06-14T10:35:00;94205.91;;;26.68;100.00
10006;BME280;5042;42.626;23.382;2023-06-14T10:37:27;94207.16;;;26.18;100.00
10006;BME280;5042;42.626;23.382;2023-06-14T10:39:54;94194.22;;;26.39;100.00
10006;BME280;5042;42.626;23.382;2023-06-14T10:42:21;94184.56;;;26.19;100.00
10006;BME280;5042;42.626;23.382;2023-06-14T10:44:52;94188.00;;;25.87;100.00
10006;BME280;5042;42.626;23.382;2023-06-14T10:47:25;94166.06;;;24.84;100.00
10006;BME280;5042;42.626;23.382;2023-06-14T10:49:54;94174.66;;;24.57;100.00
10006;BME280;5042;42.626;23.382;2023-06-14T10:52:24;94174.06;;;24.60;100.00
10006;BME280;5042;42.626;23.382;2023-06-14T10:55:07;94181.22;;;24.35;100.00
10006;BME280;5042;42.626;23.382;2023-06-14T10:57:39;94165.56;;;24.13;100.00
10006;BME280;5042;42.626;23.382;2023-06-14T11:00:07;94156.38;;;24.24;100.00
10006;BME280;5042;42.626;23.382;2023-06-14T11:05:55;94169.41;;;24.36;100.00
10006;BME280;5042;42.626;23.382;2023-06-14T11:09:19;94171.34;;;24.30;100.00
10006;BME280;5042;42.626;23.382;2023-06-14T11:11:51;94163.13;;;24.56;100.00
10006;BME280;5042;42.626;23.382;2023-06-14T11:14:20;94157.28;;;24.78;100.00
10006;BME280;5042;42.626;23.382;2023-06-14T11:16:50;94157.06;;;24.98;100.00
10006;BME280;5042;42.626;23.382;2023-06-14T11:19:17;94159.47;;;25.00;100.00
10006;BME280;5042;42.626;23.382;2023-06-14T11:21:48;94152.25;;;24.71;100.00
10006;BME280;5042;42.626;23.382;2023-06-14T11:24:16;94155.97;;;24.46;100.00
10006;BME280;5042;42.626;23.382;2023-06-14T11:26:43;94152.16;;;24.52;100.00
10006;BME280;5042;42.626;23.382;2023-06-14T11:29:10;94150.34;;;24.43;100.00
10006;BME280;5042;42.626;23.382;2023-06-14T11:31:37;94137.72;;;24.48;100.00
10006;BME280;5042;42.626;23.382;2023-06-14T11:34:04;94151.16;;;24.72;100.00
10006;BME280;5042;42.626;23.382;2023-06-14T11:36:33;94155.00;;;24.66;100.00
10006;BME280;5042;42.626;23.382;2023-06-14T11:39:04;94149.50;;;24.52;100.00
10006;BME280;5042;42.626;23.382;2023-06-14T11:41:33;94160.66;;;24.89;100.00
10006;BME280;5042;42.626;23.382;2023-06-14T11:44:00;94157.53;;;25.06;100.00
10006;BME280;5042;42.626;23.382;2023-06-14T11:46:28;94146.00;;;25.05;100.00
10006;BME280;5042;42.626;23.382;2023-06-14T11:48:54;94143.19;;;24.91;100.00
10006;BME280;5042;42.626;23.382;2023-06-14T11:51:21;94136.97;;;24.72;100.00
10006;BME280;5042;42.626;23.382;2023-06-14T11:53:48;94128.31;;;24.51;100.00
10006;BME280;5042;42.626;23.382;2023-06-14T11:56:17;94138.31;;;24.40;100.00
10006;BME280;5042;42.626;23.382;2023-06-14T11:58:44;94106.13;;;24.45;100.00
10006;BME280;5042;42.626;23.382;2023-06-14T12:01:14;94055.13;;;24.26;100.00
10006;BME280;5042;42.626;23.382;2023-06-14T12:03:47;94113.44;;;24.93;100.00
10006;BME280;5042;42.626;23.382;2023-06-14T12:06:15;94115.44;;;25.30;100.00
10006;BME280;5042;42.626;23.382;2023-06-14T12:08:43;94114.22;;;25.42;100.00
10006;BME280;5042;42.626;23.382;2023-06-14T12:11:12;94106.41;;;24.97;100.00
10006;BME280;5042;42.626;23.382;2023-06-14T12:13:41;94103.44;;;24.98;100.00
10006;BME280;5042;42.626;23.382;2023-06-14T12:16:08;94112.00;;;25.01;100.00
10006;BME280;5042;42.626;23.382;2023-06-14T12:18:36;94113.22;;;24.89;100.00
10006;BME280;5042;42.626;23.382;2023-06-14T12:21:04;94101.28;;;24.76;100.00
10006;BME280;5042;42.626;23.382;2023-06-14T12:23:45;94104.13;;;24.85;100.00
10006;BME280;5042;42.626;23.382;2023-06-14T12:26:15;94096.53;;;24.92;100.00
10006;BME280;5042;42.626;23.382;2023-06-14T12:28:44;94101.06;;;24.97;100.00
10006;BME280;5042;42.626;23.382;2023-06-14T12:31:12;94098.69;;;25.14;100.00
10006;BME280;5042;42.626;23.382;2023-06-14T12:33:39;94090.34;;;25.21;100.00
10006;BME280;5042;42.626;23.382;2023-06-14T12:36:07;94093.97;;;25.30;100.00
10006;BME280;5042;42.626;23.382;2023-06-14T12:38:35;94081.78;;;25.19;100.00
10006;BME280;5042;42.626;23.382;2023-06-14T12:41:03;94082.09;;;25.12;100.00
10006;BME280;5042;42.626;23.382;2023-06-14T12:43:30;94086.84;;;24.96;100.00
10006;BME280;5042;42.626;23.382;2023-06-14T12:45:58;94095.84;;;24.82;100.00
10006;BME280;5042;42.626;23.382;2023-06-14T12:48:26;94051.38;;;24.57;100.00
10006;BME280;5042;42.626;23.382;2023-06-14T12:50:53;94087.97;;;24.90;100.00
10006;BME280;5042;42.626;23.382;2023-06-14T12:53:20;94079.50;;;24.83;100.00
10006;BME280;5042;42.626;23.382;2023-06-14T12:55:46;94077.53;;;24.36;100.00
10006;BME280;5042;42.626;23.382;2023-06-14T12:58:13;94076.88;;;24.20;100.00